createdAt,value
2018-05-01T00:00:54.724Z,12.00
2018-05-01T00:03:28.529Z,12.00
2018-05-01T00:06:03.127Z,11.90
2018-05-01T00:08:38.498Z,11.90
2018-05-01T00:11:12.102Z,11.80
2018-05-01T00:13:45.980Z,11.80
2018-05-01T00:16:19.747Z,11.90
2018-05-01T00:18:53.603Z,11.80
2018-05-01T00:21:27.455Z,11.80
2018-05-01T00:24:01.998Z,11.80
2018-05-01T00:26:36.003Z,11.80
2018-05-01T00:29:09.807Z,11.80
2018-05-01T00:31:44.180Z,11.80
2018-05-01T00:34:17.840Z,11.80
2018-05-01T00:36:51.391Z,11.80
2018-05-01T00:39:25.235Z,11.80
2018-05-01T00:41:59.607Z,11.80
2018-05-01T00:44:33.537Z,11.80
2018-05-01T00:47:07.607Z,11.70
2018-05-01T00:49:41.482Z,11.70
2018-05-01T00:52:26.805Z,11.70
2018-05-01T00:55:00.595Z,11.70
2018-05-01T00:57:34.246Z,11.70
2018-05-01T01:00:09.172Z,11.60
2018-05-01T01:02:43.593Z,11.60
2018-05-01T01:05:18.156Z,11.60
2018-05-01T01:07:51.895Z,11.50
2018-05-01T01:10:25.604Z,11.50
2018-05-01T01:12:59.359Z,11.40
2018-05-01T01:15:33.149Z,11.30
2018-05-01T01:18:06.895Z,11.30
2018-05-01T01:20:40.619Z,11.20
2018-05-01T01:23:14.253Z,11.20
2018-05-01T01:25:47.954Z,11.10
2018-05-01T01:28:21.663Z,11.00
2018-05-01T01:30:56.055Z,10.90
2018-05-01T01:33:29.685Z,10.90
2018-05-01T01:36:03.042Z,10.90
2018-05-01T01:38:37.943Z,10.80
2018-05-01T01:41:11.241Z,10.70
2018-05-01T01:43:44.509Z,10.70
2018-05-01T01:46:17.671Z,10.50
2018-05-01T01:48:50.897Z,10.40
2018-05-01T01:51:28.059Z,10.30
2018-05-01T01:54:02.083Z,10.30
2018-05-01T01:56:35.240Z,10.30
2018-05-01T01:59:08.602Z,10.30
2018-05-01T02:01:41.860Z,10.20
2018-05-01T02:04:15.065Z,10.20
2018-05-01T02:06:48.320Z,10.10
2018-05-01T02:09:21.536Z,10.10
2018-05-01T02:11:55.893Z,10.00
2018-05-01T02:14:29.251Z,10.00
2018-05-01T02:17:02.405Z,9.90
2018-05-01T02:19:35.745Z,9.90
2018-05-01T02:22:13.487Z,9.90
2018-05-01T02:24:48.059Z,9.90
2018-05-01T02:27:22.230Z,9.80
2018-05-01T02:29:55.403Z,9.80
2018-05-01T02:32:28.770Z,9.80
2018-05-01T02:35:02.077Z,9.80
2018-05-01T02:37:35.332Z,9.70
2018-05-01T02:40:09.355Z,9.70
2018-05-01T02:42:42.457Z,9.60
2018-05-01T02:45:15.618Z,9.60
2018-05-01T02:47:48.900Z,9.60
2018-05-01T02:50:22.048Z,9.50
2018-05-01T02:52:55.155Z,9.50
2018-05-01T02:55:28.450Z,9.50
2018-05-01T02:58:01.759Z,9.50
2018-05-01T03:00:34.848Z,9.40
2018-05-01T03:03:09.045Z,9.40
2018-05-01T03:05:43.157Z,9.40
2018-05-01T03:08:17.456Z,9.30
2018-05-01T03:10:50.819Z,9.30
2018-05-01T03:13:24.536Z,9.30
2018-05-01T03:15:57.926Z,9.30
2018-05-01T03:18:31.263Z,9.20
2018-05-01T03:21:04.535Z,9.20
2018-05-01T03:23:37.676Z,9.10
2018-05-01T03:26:10.938Z,9.10
2018-05-01T03:28:44.291Z,9.10
2018-05-01T03:31:17.513Z,9.10
2018-05-01T03:33:50.758Z,9.10
2018-05-01T03:36:23.959Z,9.10
2018-05-01T03:38:57.275Z,9.00
2018-05-01T03:41:31.341Z,9.00
2018-05-01T03:44:04.676Z,9.00
2018-05-01T03:46:37.781Z,9.00
2018-05-01T03:49:11.400Z,9.00
2018-05-01T03:51:44.550Z,9.00
2018-05-01T03:54:17.800Z,9.00
2018-05-01T03:56:50.866Z,9.00
2018-05-01T03:59:24.319Z,9.00
2018-05-01T04:01:57.615Z,8.90
2018-05-01T04:04:30.999Z,9.00
2018-05-01T04:07:05.072Z,9.00
2018-05-01T04:09:38.406Z,9.00
2018-05-01T04:12:11.637Z,9.00
2018-05-01T04:14:44.791Z,9.00
2018-05-01T04:17:18.194Z,9.00
2018-05-01T04:19:51.370Z,8.90
2018-05-01T04:22:24.579Z,8.90
2018-05-01T04:24:57.772Z,9.00
2018-05-01T04:27:31.815Z,8.90
2018-05-01T04:30:05.755Z,8.90
2018-05-01T04:32:39.141Z,8.90
2018-05-01T04:35:12.448Z,8.80
2018-05-01T04:37:45.771Z,8.70
2018-05-01T04:40:19.734Z,8.70
2018-05-01T04:42:52.962Z,8.70
2018-05-01T04:45:26.122Z,8.60
2018-05-01T04:47:59.422Z,8.60
2018-05-01T04:50:34.181Z,8.50
2018-05-01T04:53:07.308Z,8.50
2018-05-01T04:55:40.986Z,8.40
2018-05-01T04:58:14.139Z,8.40
2018-05-01T05:00:47.437Z,8.40
2018-05-01T05:03:21.229Z,8.30
2018-05-01T05:05:54.423Z,8.30
2018-05-01T05:08:28.312Z,8.20
2018-05-01T05:11:01.380Z,8.20
2018-05-01T05:13:35.419Z,8.10
2018-05-01T05:16:08.715Z,8.20
2018-05-01T05:18:41.975Z,8.10
2018-05-01T05:21:15.069Z,8.10
2018-05-01T05:23:48.258Z,8.20
2018-05-01T05:26:21.624Z,8.20
2018-05-01T05:28:54.914Z,8.20
2018-05-01T05:31:29.095Z,8.20
2018-05-01T05:34:03.168Z,8.20
2018-05-01T05:36:36.507Z,8.20
2018-05-01T05:39:09.664Z,8.10
2018-05-01T05:41:43.608Z,8.00
2018-05-01T05:44:17.375Z,7.90
2018-05-01T05:46:51.478Z,7.80
2018-05-01T05:49:24.566Z,7.80
2018-05-01T05:51:58.592Z,7.70
2018-05-01T05:54:31.833Z,7.70
2018-05-01T05:57:05.744Z,7.70
2018-05-01T05:59:39.077Z,7.70
2018-05-01T06:02:12.265Z,7.80
2018-05-01T06:04:45.514Z,7.70
2018-05-01T06:07:18.736Z,7.70
2018-05-01T06:09:52.807Z,7.80
2018-05-01T06:12:26.149Z,7.70
2018-05-01T06:14:59.442Z,7.70
2018-05-01T06:17:33.554Z,7.80
2018-05-01T06:20:06.938Z,7.70
2018-05-01T06:22:41.119Z,7.70
2018-05-01T06:25:14.586Z,7.70
2018-05-01T06:27:47.914Z,7.70
2018-05-01T06:30:21.151Z,7.70
2018-05-01T06:32:54.554Z,7.60
2018-05-01T06:35:28.545Z,7.70
2018-05-01T06:38:01.897Z,7.60
2018-05-01T06:40:36.093Z,7.70
2018-05-01T06:43:10.164Z,7.60
2018-05-01T06:45:43.366Z,7.60
2018-05-01T06:48:16.658Z,7.60
2018-05-01T06:50:50.080Z,7.60
2018-05-01T06:53:24.287Z,7.60
2018-05-01T06:55:57.808Z,7.70
2018-05-01T06:58:31.110Z,7.70
2018-05-01T07:01:04.370Z,7.70
2018-05-01T07:03:39.923Z,7.90
2018-05-01T07:06:13.635Z,7.80
2018-05-01T07:08:47.736Z,8.10
2018-05-01T07:11:21.556Z,8.10
2018-05-01T07:13:54.717Z,8.20
2018-05-01T07:16:28.756Z,8.30
2018-05-01T07:19:02.868Z,8.50
2018-05-01T07:21:36.191Z,8.50
2018-05-01T07:24:09.435Z,8.50
2018-05-01T07:26:42.649Z,8.60
2018-05-01T07:29:15.715Z,8.80
2018-05-01T07:31:48.903Z,9.00
2018-05-01T07:34:29.069Z,9.10
2018-05-01T07:37:04.776Z,9.10
2018-05-01T07:39:38.066Z,9.10
2018-05-01T07:42:11.480Z,9.10
2018-05-01T07:44:44.651Z,9.10
2018-05-01T07:47:18.074Z,9.10
2018-05-01T07:49:51.362Z,9.00
2018-05-01T07:52:24.620Z,9.00
2018-05-01T07:54:57.954Z,9.00
2018-05-01T07:57:31.286Z,9.00
2018-05-01T08:00:05.130Z,9.10
2018-05-01T08:02:40.097Z,9.10
2018-05-01T08:05:13.251Z,9.00
2018-05-01T08:07:46.581Z,9.10
2018-05-01T08:10:20.491Z,9.10
2018-05-01T08:54:56.070Z,9.60
2018-05-01T08:57:37.710Z,9.50
2018-05-01T09:00:21.809Z,9.60
2018-05-01T09:02:57.634Z,9.60
2018-05-01T09:11:41.877Z,9.70
2018-05-01T09:14:20.000Z,9.50
2018-05-01T09:20:13.199Z,9.10
2018-05-01T09:22:49.254Z,9.30
2018-05-01T09:25:24.277Z,9.30
2018-05-01T09:27:59.025Z,9.20
2018-05-01T09:30:32.408Z,9.50
2018-05-01T09:33:05.787Z,9.60
2018-05-01T09:35:39.255Z,9.60
2018-05-01T09:38:12.681Z,9.60
2018-05-01T09:40:46.709Z,9.70
2018-05-01T09:43:19.985Z,9.70
2018-05-01T09:45:53.220Z,9.70
2018-05-01T09:48:26.358Z,9.50
2018-05-01T09:50:59.794Z,9.40
2018-05-01T09:53:33.456Z,9.40
2018-05-01T09:56:07.096Z,9.30
2018-05-01T09:58:40.748Z,9.30
2018-05-01T10:01:14.567Z,9.40
2018-05-01T10:03:49.952Z,9.20
2018-05-01T10:06:23.666Z,9.20
2018-05-01T10:08:57.480Z,9.10
2018-05-01T10:11:31.762Z,9.10
2018-05-01T10:14:06.192Z,9.00
2018-05-01T10:16:40.892Z,9.10
2018-05-01T10:19:14.727Z,9.10
2018-05-01T10:21:48.549Z,9.20
2018-05-01T10:24:22.475Z,9.40
2018-05-01T10:26:59.524Z,9.50
2018-05-01T10:29:37.562Z,9.60
2018-05-01T10:32:12.683Z,9.60
2018-05-01T10:34:48.211Z,9.50
2018-05-01T10:37:22.326Z,9.60
2018-05-01T10:39:57.894Z,9.50
2018-05-01T10:42:31.706Z,9.50
2018-05-01T10:45:06.408Z,9.40
2018-05-01T10:47:40.321Z,9.40
2018-05-01T10:50:14.027Z,9.40
2018-05-01T10:52:48.193Z,9.30
2018-05-01T10:55:22.468Z,9.30
2018-05-01T10:57:56.280Z,9.40
2018-05-01T11:00:30.235Z,9.40
2018-05-01T11:03:03.940Z,9.40
2018-05-01T11:05:40.702Z,9.50
2018-05-01T11:08:16.324Z,10.00
2018-05-01T11:10:50.205Z,10.00
2018-05-01T11:13:24.716Z,10.60
2018-05-01T11:15:59.692Z,10.60
2018-05-01T11:18:34.172Z,11.10
2018-05-01T11:23:58.115Z,11.10
2018-05-01T11:26:36.519Z,11.10
2018-05-01T11:29:12.656Z,10.60
2018-05-01T11:31:48.917Z,10.40
2018-05-01T11:34:23.063Z,10.40
2018-05-01T11:36:58.577Z,10.50
2018-05-01T11:39:33.034Z,10.70
2018-05-01T11:42:07.260Z,10.80
2018-05-01T11:44:42.283Z,11.10
2018-05-01T11:47:16.430Z,11.10
2018-05-01T11:49:52.574Z,10.90
2018-05-01T11:52:28.553Z,10.90
2018-05-01T11:55:08.533Z,10.90
2018-05-01T11:57:44.292Z,11.20
2018-05-01T12:00:21.435Z,11.20
2018-05-01T12:02:58.319Z,11.30
2018-05-01T12:05:33.366Z,11.30
2018-05-01T12:08:08.039Z,11.50
2018-05-01T12:10:42.148Z,11.40
2018-05-01T12:13:16.559Z,11.60
2018-05-01T12:15:50.358Z,11.60
2018-05-01T12:18:24.868Z,11.60
2018-05-01T12:21:00.557Z,11.60
2018-05-01T12:23:34.340Z,11.70
2018-05-01T12:26:09.163Z,12.10
2018-05-01T12:28:43.622Z,12.40
2018-05-01T12:31:22.021Z,12.30
2018-05-01T12:33:56.441Z,12.50
2018-05-01T12:36:30.577Z,13.00
2018-05-01T12:39:09.379Z,13.20
2018-05-01T12:41:46.568Z,14.00
2018-05-01T12:44:25.889Z,14.10
2018-05-01T12:47:00.763Z,13.70
2018-05-01T12:49:34.624Z,13.40
2018-05-01T12:52:08.311Z,13.20
2018-05-01T12:54:42.909Z,13.00
2018-05-01T12:57:16.538Z,12.90
2018-05-01T12:59:51.883Z,12.90
2018-05-01T13:05:24.142Z,12.90
2018-05-01T13:08:06.244Z,12.90
2018-05-01T13:10:44.732Z,13.10
2018-05-01T13:13:41.091Z,13.10
2018-05-01T13:19:22.298Z,12.40
2018-05-01T13:30:57.831Z,13.30
2018-05-01T13:33:33.881Z,13.60
2018-05-01T13:36:16.305Z,14.80
2018-05-01T13:38:52.930Z,15.60
2018-05-01T13:53:45.190Z,16.40
2018-05-01T13:56:30.285Z,15.50
2018-05-01T13:59:07.348Z,14.60
2018-05-01T14:05:07.601Z,14.10
2018-05-01T14:10:39.062Z,15.90
2018-05-01T14:16:28.363Z,16.10
2018-05-01T14:19:06.060Z,15.60
2018-05-01T14:21:40.683Z,15.30
2018-05-01T14:24:14.969Z,15.40
2018-05-01T14:26:50.553Z,15.60
2018-05-01T14:29:29.527Z,15.60
2018-05-01T14:32:04.545Z,15.70
2018-05-01T14:34:42.710Z,15.70
2018-05-01T14:37:18.314Z,16.20
2018-05-01T14:40:06.859Z,17.50
2018-05-01T14:42:43.033Z,17.50
2018-05-01T14:45:18.497Z,17.10
2018-05-01T14:47:59.627Z,16.30
2018-05-01T14:50:35.355Z,16.30
2018-05-01T14:53:12.017Z,16.10
2018-05-01T14:55:53.126Z,17.00
2018-05-01T14:58:33.201Z,17.00
2018-05-01T15:01:10.221Z,17.00
2018-05-01T15:03:46.793Z,17.30
2018-05-01T15:06:21.115Z,16.90
2018-05-01T15:08:58.244Z,16.50
2018-05-01T15:11:33.492Z,16.40
2018-05-01T15:14:09.210Z,17.30
2018-05-01T15:16:45.001Z,19.40
2018-05-01T15:19:18.963Z,19.50
2018-05-01T15:21:53.584Z,20.70
2018-05-01T15:24:30.443Z,19.70
2018-05-01T15:27:05.545Z,19.70
2018-05-01T15:29:44.406Z,19.00
2018-05-01T15:32:18.176Z,18.40
2018-05-01T15:34:53.936Z,17.50
2018-05-01T15:37:33.064Z,17.80
2018-05-01T15:40:07.100Z,17.80
2018-05-01T15:42:42.953Z,17.60
2018-05-01T15:45:19.126Z,17.10
2018-05-01T15:47:57.831Z,17.70
2018-05-01T15:50:31.518Z,18.20
2018-05-01T15:53:06.214Z,19.30
2018-05-01T15:55:42.526Z,19.20
2018-05-01T15:58:18.546Z,19.20
2018-05-01T16:00:53.184Z,20.90
2018-05-01T16:03:27.502Z,20.90
2018-05-01T16:06:03.041Z,21.70
2018-05-01T16:08:37.256Z,21.70
2018-05-01T16:11:11.847Z,21.70
2018-05-01T16:13:46.573Z,22.10
2018-05-01T16:16:21.909Z,22.90
2018-05-01T16:18:58.387Z,24.00
2018-05-01T16:21:32.079Z,23.80
2018-05-01T16:24:05.874Z,21.50
2018-05-01T16:26:40.488Z,20.30
2018-05-01T16:29:14.258Z,21.50
2018-05-01T16:31:48.108Z,21.60
2018-05-01T16:34:21.787Z,22.20
2018-05-01T16:36:55.483Z,22.20
2018-05-01T16:39:29.428Z,22.70
2018-05-01T16:42:04.117Z,23.00
2018-05-01T16:44:37.871Z,23.00
2018-05-01T16:47:16.023Z,23.70
2018-05-01T16:49:52.281Z,23.90
2018-05-01T16:52:26.021Z,21.70
2018-05-01T16:55:00.779Z,21.40
2018-05-01T16:57:35.343Z,21.90
2018-05-01T17:00:10.326Z,22.20
2018-05-01T17:02:44.617Z,22.50
2018-05-01T17:08:00.198Z,22.20
2018-05-01T17:10:34.395Z,22.70
2018-05-01T17:13:08.087Z,24.10
2018-05-01T17:15:44.765Z,22.40
2018-05-01T17:18:19.857Z,21.30
2018-05-01T17:20:54.948Z,21.30
2018-05-01T17:23:31.609Z,21.20
2018-05-01T17:26:13.638Z,21.20
2018-05-01T17:29:05.348Z,21.40
2018-05-01T17:31:42.078Z,20.70
2018-05-01T17:34:16.830Z,18.70
2018-05-01T17:36:55.153Z,17.70
2018-05-01T17:39:31.733Z,17.60
2018-05-01T17:42:05.579Z,15.70
2018-05-01T17:44:39.805Z,14.80
2018-05-01T17:47:15.331Z,14.10
2018-05-01T17:49:49.782Z,14.00
2018-05-01T17:52:24.235Z,13.70
2018-05-01T17:54:58.363Z,13.50
2018-05-01T17:57:35.526Z,13.30
2018-05-01T18:00:11.860Z,13.10
2018-05-01T18:02:51.470Z,13.00
2018-05-01T18:05:25.398Z,12.90
2018-05-01T18:07:59.262Z,12.70
2018-05-01T18:10:36.180Z,12.70
2018-05-01T18:13:09.774Z,12.50
2018-05-01T18:15:43.593Z,12.50
2018-05-01T18:18:17.286Z,12.40
2018-05-01T18:20:50.940Z,12.30
2018-05-01T18:23:24.635Z,12.20
2018-05-01T18:25:59.262Z,11.90
2018-05-01T18:28:33.114Z,11.90
2018-05-01T18:31:06.758Z,11.80
2018-05-01T18:33:40.531Z,11.70
2018-05-01T18:36:14.363Z,11.60
2018-05-01T18:38:48.174Z,11.50
2018-05-01T18:41:21.885Z,11.30
2018-05-01T18:43:55.702Z,11.20
2018-05-01T18:46:29.438Z,11.10
2018-05-01T18:49:03.900Z,11.00
2018-05-01T18:51:37.731Z,11.00
2018-05-01T18:54:11.551Z,10.90
2018-05-01T18:56:45.339Z,10.80
2018-05-01T18:59:19.856Z,10.70
2018-05-01T19:01:53.723Z,10.60
2018-05-01T19:04:32.307Z,10.60
2018-05-01T19:07:06.504Z,10.50
2018-05-01T19:09:40.179Z,10.40
2018-05-01T19:12:14.654Z,10.30
2018-05-01T19:17:27.385Z,10.10
2018-05-01T19:20:01.175Z,9.90
2018-05-01T19:22:35.476Z,9.80
2018-05-01T19:25:09.603Z,9.80
2018-05-01T19:27:43.626Z,9.70
2018-05-01T19:30:18.233Z,9.60
2018-05-01T19:32:53.581Z,9.60
2018-05-01T19:35:28.807Z,9.50
2018-05-01T19:38:06.566Z,9.50
2018-05-01T19:40:42.289Z,9.40
2018-05-01T19:43:16.027Z,9.40
2018-05-01T19:45:55.817Z,9.30
2018-05-01T19:48:32.554Z,9.20
2018-05-01T19:51:14.194Z,9.10
2018-05-01T19:53:54.586Z,9.10
2018-05-01T19:56:31.631Z,9.00
2018-05-01T19:59:06.848Z,9.00
2018-05-01T20:01:40.445Z,9.10
2018-05-01T20:04:19.093Z,9.00
2018-05-01T20:06:53.784Z,8.90
2018-05-01T20:09:28.009Z,8.90
2018-05-01T20:12:05.077Z,8.80
2018-05-01T20:14:41.955Z,8.70
2018-05-01T20:17:21.272Z,8.60
2018-05-01T20:20:03.290Z,8.40
2018-05-01T20:22:39.998Z,8.50
2018-05-01T20:25:16.686Z,8.40
2018-05-01T20:27:56.450Z,8.40
2018-05-01T20:30:30.687Z,8.30
2018-05-01T20:33:06.661Z,8.30
2018-05-01T20:35:42.795Z,8.30
2018-05-01T20:38:17.299Z,8.30
2018-05-01T20:40:51.948Z,8.30
2018-05-01T20:43:27.616Z,8.20
2018-05-01T20:46:02.196Z,8.10
2018-05-01T20:48:36.823Z,7.90
2018-05-01T20:51:10.615Z,7.80
2018-05-01T20:53:44.398Z,7.80
2018-05-01T20:56:19.167Z,7.70
2018-05-01T20:58:52.906Z,7.60
2018-05-01T21:01:28.820Z,7.60
2018-05-01T21:04:02.406Z,7.50
2018-05-01T21:06:36.254Z,7.30
2018-05-01T21:09:10.316Z,7.20
2018-05-01T21:11:44.116Z,7.10
2018-05-01T21:14:17.920Z,6.90
2018-05-01T21:16:51.688Z,6.80
2018-05-01T21:19:25.718Z,6.70
2018-05-01T21:21:59.581Z,6.60
2018-05-01T21:24:34.120Z,6.50
2018-05-01T21:27:09.064Z,6.40
2018-05-01T21:29:43.165Z,6.40
2018-05-01T21:32:16.828Z,6.30
2018-05-01T21:34:52.107Z,6.20
2018-05-01T21:37:25.801Z,6.20
2018-05-01T21:39:59.612Z,6.10
2018-05-01T21:42:33.999Z,6.00
2018-05-01T21:45:08.808Z,6.00
2018-05-01T21:47:42.525Z,6.00
2018-05-01T21:50:16.236Z,6.00
2018-05-01T21:52:50.744Z,6.00
2018-05-01T21:55:24.405Z,5.90
2018-05-01T21:57:58.935Z,5.70
2018-05-01T22:00:33.556Z,5.70
2018-05-01T22:03:07.415Z,5.60
2018-05-01T22:05:42.149Z,5.50
2018-05-01T22:08:15.791Z,5.50
2018-05-01T22:10:49.549Z,5.40
2018-05-01T22:13:25.185Z,5.30
2018-05-01T22:15:58.931Z,5.30
2018-05-01T22:18:33.282Z,5.30
2018-05-01T22:21:06.880Z,5.30
2018-05-01T22:23:42.210Z,5.30
2018-05-01T22:26:16.174Z,5.40
2018-05-01T22:28:50.184Z,5.40
2018-05-01T22:31:23.917Z,5.50
2018-05-01T22:33:58.127Z,5.60
2018-05-01T22:36:31.821Z,5.60
2018-05-01T22:39:06.350Z,5.50
2018-05-01T22:41:41.796Z,5.50
2018-05-01T22:44:15.516Z,5.40
2018-05-01T22:46:50.176Z,5.30
2018-05-01T22:49:27.874Z,5.30
2018-05-01T22:52:01.907Z,5.30
2018-05-01T22:54:38.104Z,5.30
2018-05-01T22:57:17.691Z,5.30
2018-05-01T22:59:53.841Z,5.20
2018-05-01T23:02:33.031Z,5.00
2018-05-01T23:05:08.318Z,5.00
2018-05-01T23:07:43.570Z,4.90
2018-05-01T23:10:22.788Z,4.80
2018-05-01T23:13:00.266Z,4.70
2018-05-01T23:15:36.717Z,4.70
2018-05-01T23:18:12.451Z,4.60
2018-05-01T23:20:46.111Z,4.60
2018-05-01T23:23:23.151Z,4.50
2018-05-01T23:25:58.679Z,4.50
2018-05-01T23:28:33.549Z,4.50
2018-05-01T23:31:08.853Z,4.50
2018-05-01T23:36:33.273Z,4.40
2018-05-01T23:39:08.557Z,4.40
2018-05-01T23:41:43.853Z,4.40
2018-05-01T23:44:19.960Z,4.40
2018-05-01T23:46:55.535Z,4.40
2018-05-01T23:49:31.594Z,4.40
2018-05-01T23:52:08.063Z,4.40
2018-05-01T23:54:46.427Z,4.30
2018-05-01T23:57:22.240Z,4.30
2018-05-01T23:59:56.909Z,4.30
